Time;durP1;ratioP1;P1;durP2;ratioP2;P2;SDS_P1;SDS_P2;PMS_P1;PMS_P2;Temp;Humidity;BMP_temperature;BMP_pressure;BME280_temperature;BME280_humidity;BME280_pressure;Samples;Min_cycle;Max_cycle;Signal;HPM_P1;HPM_P2
2022/05/20 00:01:06;;;;;;;3.58;2.42;;;18.80;40.10;;;;;;5007071;28;33865;-78
2022/05/20 00:03:34;;;;;;;2.65;2.45;;;18.80;40.30;;;;;;5009112;28;34325;-79
2022/05/20 00:06:00;;;;;;;2.97;2.53;;;18.80;40.20;;;;;;5011301;28;35647;-79
2022/05/20 00:08:27;;;;;;;3.10;2.80;;;18.80;40.20;;;;;;5011403;28;34096;-78
2022/05/20 00:10:53;;;;;;;6.60;2.50;;;18.80;40.20;;;;;;5014703;28;34159;-80
2022/05/20 00:13:22;;;;;;;3.03;2.20;;;18.80;40.20;;;;;;4996437;28;34139;-77
2022/05/20 00:15:48;;;;;;;2.88;2.60;;;18.70;40.50;;;;;;5010629;28;35856;-78
2022/05/20 00:18:14;;;;;;;2.97;2.30;;;18.70;40.40;;;;;;5011009;28;34134;-79
2022/05/20 00:20:40;;;;;;;3.45;2.60;;;18.70;40.50;;;;;;5013456;28;34395;-79
2022/05/20 00:23:06;;;;;;;3.40;2.70;;;18.70;40.80;;;;;;4994887;28;34520;-79
2022/05/20 00:28:19;;;;;;;3.95;2.20;;;18.70;40.80;;;;;;4999477;28;34262;-79
2022/05/20 00:30:47;;;;;;;3.17;2.60;;;18.70;41.00;;;;;;5025559;28;34224;-78
2022/05/20 00:33:13;;;;;;;4.75;2.25;;;18.70;40.80;;;;;;5008478;28;34169;-78
2022/05/20 00:35:40;;;;;;;3.13;2.38;;;18.60;40.80;;;;;;5009620;28;36354;-78
2022/05/20 00:38:06;;;;;;;3.33;2.38;;;18.60;40.80;;;;;;5014012;28;34126;-79
2022/05/20 00:40:33;;;;;;;2.92;2.63;;;18.60;40.80;;;;;;5013557;28;34212;-79
2022/05/20 00:43:13;;;;;;;5.75;2.42;;;18.50;40.90;;;;;;4999351;28;33838;-79
2022/05/20 00:45:41;;;;;;;5.22;2.45;;;18.50;42.10;;;;;;5011907;28;35624;-79
2022/05/20 00:48:08;;;;;;;2.47;2.28;;;18.40;41.00;;;;;;4997244;28;34308;-79
2022/05/20 00:50:36;;;;;;;4.18;2.38;;;18.40;41.00;;;;;;5012275;28;34359;-78
2022/05/20 00:53:03;;;;;;;5.38;2.60;;;18.40;41.10;;;;;;5012848;28;34247;-79
2022/05/20 00:55:29;;;;;;;3.20;2.50;;;18.40;41.10;;;;;;5013982;28;36085;-79
2022/05/20 00:58:00;;;;;;;3.92;2.33;;;18.40;41.10;;;;;;4997658;28;34430;-79
2022/05/20 01:00:29;;;;;;;3.28;2.40;;;18.30;41.40;;;;;;5029951;28;34139;-78
2022/05/20 01:03:01;;;;;;;3.70;2.70;;;18.30;41.50;;;;;;4995662;28;34209;-78
2022/05/20 01:05:33;;;;;;;2.70;2.50;;;18.30;41.60;;;;;;5010802;28;35543;-79
2022/05/20 01:08:00;;;;;;;4.88;2.58;;;18.30;41.70;;;;;;4993855;28;34178;-78
2022/05/20 01:10:26;;;;;;;3.55;2.70;;;18.30;41.50;;;;;;5012237;28;34175;-79
2022/05/20 01:12:53;;;;;;;3.63;2.17;;;18.30;41.60;;;;;;5009707;28;34376;-78
2022/05/20 01:15:20;;;;;;;3.78;2.60;;;18.20;41.50;;;;;;5009805;28;36188;-79
2022/05/20 01:17:49;;;;;;;2.35;2.10;;;18.30;41.70;;;;;;5028301;28;34408;-78
2022/05/20 01:20:20;;;;;;;2.47;2.20;;;18.30;42.10;;;;;;5029833;28;34367;-78
2022/05/20 01:23:08;;;;;;;2.70;2.50;;;18.30;42.20;;;;;;5028174;28;34274;-78
2022/05/20 01:25:35;;;;;;;7.40;2.85;;;18.30;44.60;;;;;;5010622;28;34451;-78
2022/05/20 01:28:01;;;;;;;6.97;2.50;;;18.30;42.10;;;;;;5009090;28;33817;-78
2022/05/20 01:30:29;;;;;;;2.55;2.20;;;18.30;42.90;;;;;;5028324;28;34197;-79
2022/05/20 01:32:56;;;;;;;3.50;2.90;;;18.30;42.30;;;;;;4976700;28;34774;-78
2022/05/20 01:35:31;;;;;;;2.75;2.55;;;18.30;42.30;;;;;;4991681;28;35986;-77
2022/05/20 01:37:57;;;;;;;5.25;2.50;;;18.30;42.90;;;;;;5031451;28;34362;-77
2022/05/20 01:40:24;;;;;;;5.68;3.20;;;18.30;42.40;;;;;;5028263;28;34504;-73
2022/05/20 01:42:57;;;;;;;7.68;2.67;;;18.30;42.60;;;;;;5008752;28;34248;-73
2022/05/20 01:45:33;;;;;;;5.40;2.88;;;18.30;43.10;;;;;;5007297;28;36858;-74
2022/05/20 01:48:09;;;;;;;5.53;2.90;;;18.30;43.90;;;;;;4987269;28;34129;-74
2022/05/20 01:50:43;;;;;;;5.10;2.95;;;18.30;43.90;;;;;;5006029;28;34084;-74
2022/05/20 01:53:18;;;;;;;6.70;2.75;;;18.30;43.90;;;;;;4998698;28;34311;-72
2022/05/20 01:55:54;;;;;;;7.03;2.45;;;18.30;43.60;;;;;;4994908;28;35586;-73
2022/05/20 01:58:27;;;;;;;4.50;2.63;;;18.30;43.90;;;;;;4987819;28;34573;-74
2022/05/20 02:00:56;;;;;;;6.25;3.17;;;18.30;43.60;;;;;;5007435;28;34199;-73
2022/05/20 02:03:35;;;;;;;5.25;2.70;;;18.30;43.20;;;;;;5025085;28;34315;-72
2022/05/20 02:06:10;;;;;;;8.85;3.00;;;18.30;44.60;;;;;;4992220;28;35868;-73
2022/05/20 02:08:47;;;;;;;4.03;2.40;;;18.20;43.60;;;;;;4993841;28;34768;-73
2022/05/20 02:11:36;;;;;;;4.70;3.20;;;18.20;43.80;;;;;;4988565;28;34152;-73
2022/05/20 02:14:20;;;;;;;4.70;2.90;;;18.20;43.90;;;;;;4988203;28;34224;-76
2022/05/20 02:17:02;;;;;;;5.80;3.00;;;18.20;43.80;;;;;;4990342;28;36652;-73
2022/05/20 02:19:36;;;;;;;3.92;2.78;;;18.20;43.80;;;;;;4987716;28;34038;-74
2022/05/20 02:22:07;;;;;;;4.70;2.83;;;18.20;44.00;;;;;;4973784;28;34396;-74
2022/05/20 02:24:36;;;;;;;7.47;2.83;;;18.20;43.80;;;;;;4991848;28;34312;-74
2022/05/20 02:27:06;;;;;;;3.65;3.05;;;18.20;44.30;;;;;;4980822;28;35647;-74
2022/05/20 02:29:48;;;;;;;5.22;2.78;;;18.10;43.80;;;;;;4988310;28;34130;-74
2022/05/20 02:32:29;;;;;;;6.95;3.25;;;18.10;44.80;;;;;;5004927;28;34109;-74
2022/05/20 02:34:55;;;;;;;4.55;2.90;;;18.10;44.00;;;;;;4987807;28;34513;-74
2022/05/20 02:37:26;;;;;;;5.03;3.00;;;18.10;43.60;;;;;;4989266;28;35468;-74
2022/05/20 02:39:52;;;;;;;5.32;3.20;;;18.00;43.70;;;;;;4991157;28;34208;-74
2022/05/20 02:42:18;;;;;;;4.70;3.03;;;18.00;43.60;;;;;;5014188;28;34267;-74
2022/05/20 02:44:44;;;;;;;5.53;2.90;;;17.90;43.70;;;;;;5005653;28;34376;-74
2022/05/20 02:47:11;;;;;;;5.72;2.78;;;18.00;43.70;;;;;;5006962;28;34367;-74
2022/05/20 02:49:37;;;;;;;9.65;3.50;;;18.00;43.70;;;;;;4987328;28;34461;-74
2022/05/20 02:52:04;;;;;;;7.88;3.30;;;17.90;43.80;;;;;;4986541;28;34588;-74
2022/05/20 02:54:30;;;;;;;7.20;3.13;;;17.90;43.90;;;;;;4984081;28;34395;-72
2022/05/20 02:56:56;;;;;;;8.43;3.10;;;17.90;43.90;;;;;;5001712;28;34979;-73
2022/05/20 03:04:44;;;;;;;4.88;2.92;;;17.90;44.10;;;;;;4988996;28;34153;-73
2022/05/20 03:07:10;;;;;;;6.57;3.05;;;17.90;44.10;;;;;;4954240;28;36477;-73
2022/05/20 03:09:36;;;;;;;5.68;3.08;;;17.90;44.20;;;;;;5006840;28;34190;-75
2022/05/20 03:12:03;;;;;;;6.38;3.45;;;17.90;44.20;;;;;;4988657;28;34259;-73
2022/05/20 03:14:29;;;;;;;5.25;3.00;;;17.90;44.40;;;;;;5006484;28;34218;-74
2022/05/20 03:16:59;;;;;;;5.38;2.67;;;17.90;44.50;;;;;;5023436;28;34148;-73
2022/05/20 03:19:30;;;;;;;4.80;3.20;;;17.90;44.90;;;;;;5007191;28;34211;-72
2022/05/20 03:21:57;;;;;;;4.40;3.03;;;17.90;44.60;;;;;;4988600;28;34479;-72
2022/05/20 03:24:23;;;;;;;5.22;2.90;;;17.90;44.60;;;;;;4992947;28;34190;-73
2022/05/20 03:26:49;;;;;;;4.80;3.30;;;17.90;44.70;;;;;;5023654;28;34587;-74
2022/05/20 03:29:15;;;;;;;6.38;3.38;;;17.90;44.70;;;;;;4987246;28;34284;-73
2022/05/20 03:31:42;;;;;;;3.70;2.47;;;17.90;44.70;;;;;;4995764;28;34252;-74
2022/05/20 03:34:09;;;;;;;5.57;2.95;;;17.90;44.80;;;;;;4986604;28;34647;-74
2022/05/20 03:36:38;;;;;;;8.43;3.28;;;17.90;44.80;;;;;;4986314;28;35694;-74
2022/05/20 03:39:05;;;;;;;4.60;3.13;;;17.90;44.90;;;;;;5021144;28;35004;-74
2022/05/20 03:41:31;;;;;;;3.25;2.83;;;17.90;44.80;;;;;;5023877;28;34299;-74
2022/05/20 03:43:57;;;;;;;5.43;2.80;;;17.80;44.70;;;;;;5004235;28;34190;-74
2022/05/20 03:46:23;;;;;;;4.80;3.05;;;17.80;44.80;;;;;;5003448;28;35621;-74
2022/05/20 03:48:49;;;;;;;4.75;3.30;;;17.80;44.80;;;;;;5002485;28;34147;-74
2022/05/20 03:51:15;;;;;;;5.75;2.90;;;17.80;44.80;;;;;;4990558;28;34119;-74
2022/05/20 03:53:42;;;;;;;4.25;3.20;;;17.80;44.80;;;;;;5008255;28;34327;-74
2022/05/20 03:56:08;;;;;;;7.57;3.15;;;17.90;44.80;;;;;;5003615;28;34042;-74
2022/05/20 03:58:35;;;;;;;7.03;3.15;;;17.80;44.70;;;;;;4972250;28;34251;-75
2022/05/20 04:03:45;;;;;;;4.07;3.17;;;17.80;44.90;;;;;;5003331;28;34068;-74
2022/05/20 04:06:11;;;;;;;3.72;3.00;;;17.80;45.00;;;;;;4972033;28;37091;-73
2022/05/20 04:08:38;;;;;;;4.95;3.50;;;17.80;45.00;;;;;;4993053;28;34466;-73
2022/05/20 04:11:06;;;;;;;4.60;3.30;;;17.80;45.00;;;;;;4987685;28;33832;-74
2022/05/20 04:13:32;;;;;;;3.45;3.10;;;17.80;45.00;;;;;;4974312;28;34684;-74
2022/05/20 04:15:58;;;;;;;3.95;3.05;;;17.80;45.00;;;;;;4993213;28;36778;-74
2022/05/20 04:18:24;;;;;;;7.15;3.53;;;17.80;45.00;;;;;;5018298;28;34892;-74
2022/05/20 04:20:50;;;;;;;3.30;2.90;;;17.90;45.10;;;;;;5005700;28;34209;-74
2022/05/20 04:23:18;;;;;;;4.15;3.40;;;17.90;45.10;;;;;;5007394;28;34273;-74
2022/05/20 04:25:47;;;;;;;4.63;3.40;;;17.90;45.10;;;;;;5008517;28;35935;-74
2022/05/20 04:28:14;;;;;;;4.05;2.95;;;17.90;45.00;;;;;;4991898;28;34342;-73
2022/05/20 04:30:40;;;;;;;6.75;3.33;;;17.90;45.00;;;;;;5006856;28;34227;-74
2022/05/20 04:33:07;;;;;;;5.38;3.28;;;18.00;44.90;;;;;;4997663;28;34513;-73
2022/05/20 04:35:33;;;;;;;4.43;3.70;;;18.00;44.90;;;;;;5026692;28;34229;-74
2022/05/20 04:37:59;;;;;;;5.10;3.90;;;18.00;44.90;;;;;;4988695;28;34520;-73
2022/05/20 04:40:25;;;;;;;4.68;3.47;;;18.00;44.80;;;;;;4988272;28;34190;-74
2022/05/20 04:48:13;;;;;;;4.55;3.25;;;18.10;45.00;;;;;;4991134;28;34369;-73
2022/05/20 04:50:40;;;;;;;4.93;3.60;;;18.10;44.90;;;;;;5006230;28;34307;-73
2022/05/20 04:53:07;;;;;;;6.28;3.58;;;18.10;44.90;;;;;;5007405;28;34376;-73
2022/05/20 04:55:33;;;;;;;3.85;3.30;;;18.10;44.90;;;;;;4972522;28;35681;-73
2022/05/20 04:57:59;;;;;;;3.72;3.30;;;18.20;45.00;;;;;;4988693;28;34146;-73
2022/05/20 05:00:30;;;;;;;6.20;3.30;;;18.20;45.00;;;;;;5003299;28;34500;-73
2022/05/20 05:02:56;;;;;;;4.47;3.47;;;18.20;45.10;;;;;;5006422;28;34168;-73
2022/05/20 05:05:26;;;;;;;6.75;3.85;;;18.20;45.00;;;;;;5006112;28;34418;-73
2022/05/20 05:07:54;;;;;;;5.03;3.55;;;18.20;45.10;;;;;;4964829;28;34034;-74
2022/05/20 05:10:24;;;;;;;4.40;3.97;;;18.20;45.00;;;;;;5008310;28;34245;-74
2022/05/20 05:12:50;;;;;;;4.82;3.47;;;18.20;45.00;;;;;;4992137;28;34127;-73
2022/05/20 05:15:17;;;;;;;6.55;4.25;;;18.30;45.00;;;;;;5008013;28;35563;-73
2022/05/20 05:20:27;;;;;;;6.72;4.00;;;18.90;44.30;;;;;;5025759;28;34497;-73
2022/05/20 05:22:55;;;;;;;4.05;3.65;;;19.40;43.60;;;;;;5019532;28;34579;-73
2022/05/20 05:25:24;;;;;;;5.53;3.58;;;19.90;42.80;;;;;;4988738;28;35725;-74
2022/05/20 05:27:50;;;;;;;4.45;3.58;;;20.40;41.80;;;;;;5006034;28;34122;-74
2022/05/20 05:30:17;;;;;;;4.53;3.20;;;20.80;40.60;;;;;;4988439;28;34139;-74
2022/05/20 05:32:43;;;;;;;6.72;3.58;;;21.20;39.60;;;;;;5019147;28;34114;-74
2022/05/20 05:35:17;;;;;;;4.85;3.70;;;21.60;38.90;;;;;;5025006;28;34951;-74
2022/05/20 05:37:43;;;;;;;3.42;2.92;;;22.10;38.30;;;;;;5008152;28;34181;-74
2022/05/20 05:40:13;;;;;;;4.45;3.30;;;22.50;37.60;;;;;;5008108;28;34335;-74
2022/05/20 05:42:41;;;;;;;3.53;3.13;;;22.90;36.90;;;;;;4991895;28;34189;-75
2022/05/20 05:45:08;;;;;;;3.83;2.95;;;23.40;36.20;;;;;;5025366;28;34135;-75
2022/05/20 05:47:34;;;;;;;3.00;2.67;;;23.90;35.60;;;;;;5007711;28;34445;-75
2022/05/20 05:49:59;;;;;;;7.53;2.60;;;24.30;35.00;;;;;;5008776;28;34288;-75
2022/05/20 05:52:25;;;;;;;4.07;2.85;;;24.70;34.30;;;;;;4991584;28;34277;-75
2022/05/20 05:54:51;;;;;;;2.70;2.50;;;25.10;33.00;;;;;;5026069;28;34331;-76
2022/05/20 05:57:17;;;;;;;3.45;2.45;;;25.40;32.20;;;;;;5008474;28;34226;-74
2022/05/20 05:59:43;;;;;;;3.20;2.90;;;25.60;31.60;;;;;;5008812;28;34369;-75
2022/05/20 06:02:09;;;;;;;2.95;2.40;;;26.00;31.20;;;;;;5001621;28;34372;-75
2022/05/20 06:04:36;;;;;;;2.88;2.40;;;26.30;30.30;;;;;;4988493;28;35840;-75
2022/05/20 06:07:02;;;;;;;2.67;2.25;;;26.50;29.50;;;;;;4988925;28;34136;-75
2022/05/20 06:09:28;;;;;;;4.15;2.60;;;26.70;28.90;;;;;;4988766;28;34187;-75
2022/05/20 06:11:54;;;;;;;4.43;2.80;;;26.90;28.00;;;;;;5006464;28;34373;-75
2022/05/20 06:14:20;;;;;;;2.75;2.53;;;27.10;28.00;;;;;;5005498;28;34315;-74
2022/05/20 06:16:46;;;;;;;2.97;2.67;;;27.30;27.60;;;;;;5006459;28;34184;-75
2022/05/20 06:19:12;;;;;;;3.08;2.50;;;27.40;27.10;;;;;;5005718;28;34494;-74
2022/05/20 06:21:40;;;;;;;3.50;2.50;;;27.60;27.00;;;;;;4988052;28;34215;-75
2022/05/20 06:24:08;;;;;;;2.92;2.63;;;27.80;26.50;;;;;;4972110;28;36469;-75
2022/05/20 06:26:35;;;;;;;3.22;2.80;;;27.90;25.50;;;;;;5011567;28;34264;-73
2022/05/20 06:29:03;;;;;;;3.70;2.80;;;28.00;25.50;;;;;;5007682;28;34222;-75
2022/05/20 06:31:29;;;;;;;2.90;2.53;;;28.10;25.30;;;;;;5007418;28;34283;-75
2022/05/20 06:33:54;;;;;;;2.58;2.38;;;28.20;24.80;;;;;;5007107;28;35748;-76
2022/05/20 06:41:44;;;;;;;3.28;2.67;;;28.60;24.20;;;;;;5022569;28;34116;-75
2022/05/20 06:44:10;;;;;;;2.75;2.35;;;28.80;23.70;;;;;;5024452;28;34228;-76
2022/05/20 06:46:36;;;;;;;3.28;2.38;;;28.80;23.30;;;;;;4990532;28;34224;-77
2022/05/20 06:49:03;;;;;;;3.97;2.80;;;28.90;23.20;;;;;;5007165;28;34481;-77
2022/05/20 06:51:31;;;;;;;2.67;2.47;;;29.00;23.50;;;;;;5024093;28;34069;-77
2022/05/20 06:53:59;;;;;;;2.65;2.45;;;29.10;22.60;;;;;;5006810;28;35890;-77
2022/05/20 06:56:28;;;;;;;2.65;2.40;;;29.00;22.30;;;;;;5024682;28;34389;-76
2022/05/20 06:58:56;;;;;;;2.05;1.90;;;29.10;22.30;;;;;;4990859;28;34106;-77
2022/05/20 07:01:22;;;;;;;2.97;2.70;;;29.20;22.30;;;;;;5007362;28;34183;-77
2022/05/20 07:03:49;;;;;;;4.93;2.40;;;29.10;22.10;;;;;;5007177;28;35521;-78
2022/05/20 07:06:17;;;;;;;2.50;2.15;;;29.10;21.90;;;;;;5024310;28;34238;-77
2022/05/20 07:08:48;;;;;;;3.75;2.67;;;29.10;22.30;;;;;;4991052;28;34440;-77
2022/05/20 07:11:15;;;;;;;2.47;2.28;;;29.10;22.70;;;;;;5008267;28;34140;-77
2022/05/20 07:13:42;;;;;;;3.35;2.30;;;29.00;22.60;;;;;;5025018;28;34557;-77
2022/05/20 07:16:08;;;;;;;4.28;2.60;;;29.00;23.10;;;;;;5007372;28;34379;-77
2022/05/20 07:18:34;;;;;;;3.88;2.60;;;29.10;23.00;;;;;;4987368;28;34337;-75
2022/05/20 07:21:01;;;;;;;2.83;2.50;;;28.90;22.00;;;;;;4989866;28;34172;-77
2022/05/20 07:23:29;;;;;;;3.03;2.75;;;28.80;22.30;;;;;;5006861;28;36922;-75
2022/05/20 07:25:55;;;;;;;4.28;2.60;;;28.60;22.40;;;;;;5006858;28;34277;-76
2022/05/20 07:28:22;;;;;;;5.10;2.60;;;28.60;22.80;;;;;;5006885;28;34570;-76
2022/05/20 07:30:48;;;;;;;2.40;2.20;;;28.60;22.70;;;;;;4991031;28;34586;-76
2022/05/20 07:33:14;;;;;;;4.63;2.63;;;28.60;22.90;;;;;;4987167;28;36433;-76
2022/05/20 07:35:39;;;;;;;2.70;2.50;;;28.70;23.00;;;;;;4971431;28;34271;-76
2022/05/20 07:38:07;;;;;;;4.80;2.55;;;28.80;22.70;;;;;;4983141;28;34363;-76
2022/05/20 07:40:36;;;;;;;3.08;2.75;;;28.60;22.30;;;;;;4987500;28;34037;-76
2022/05/20 07:43:02;;;;;;;2.88;2.58;;;28.50;22.70;;;;;;5001868;28;35796;-77
2022/05/20 07:45:29;;;;;;;3.05;2.75;;;28.50;23.10;;;;;;4989729;28;34212;-75
2022/05/20 07:47:55;;;;;;;2.88;2.58;;;28.50;23.10;;;;;;4988515;28;34310;-76
2022/05/20 07:50:21;;;;;;;2.78;2.58;;;28.40;23.10;;;;;;4974696;28;34167;-76
2022/05/20 07:55:35;;;;;;;3.15;2.65;;;28.50;22.90;;;;;;5023390;28;34054;-75
2022/05/20 07:58:03;;;;;;;4.78;2.80;;;28.50;23.00;;;;;;5007069;28;34171;-76
2022/05/20 08:00:30;;;;;;;3.40;3.10;;;28.50;23.30;;;;;;5007254;28;34110;-77
2022/05/20 08:03:00;;;;;;;3.47;3.00;;;28.50;23.20;;;;;;4993082;28;34572;-76
2022/05/20 08:05:27;;;;;;;5.30;3.20;;;28.50;23.10;;;;;;5009595;28;34226;-76
2022/05/20 08:08:00;;;;;;;3.40;3.10;;;28.60;23.40;;;;;;5007068;28;34287;-77
2022/05/20 08:10:28;;;;;;;3.90;3.30;;;28.80;23.10;;;;;;4990561;28;34220;-77
2022/05/20 08:12:56;;;;;;;3.38;3.08;;;29.00;23.60;;;;;;4990337;28;35783;-76
2022/05/20 08:15:23;;;;;;;3.70;3.05;;;29.30;23.10;;;;;;5006577;28;34119;-77
2022/05/20 08:17:49;;;;;;;3.65;2.95;;;29.60;22.80;;;;;;5006716;28;34215;-77
2022/05/20 08:20:22;;;;;;;5.72;3.30;;;29.80;22.30;;;;;;5011944;28;34034;-77
2022/05/20 08:22:50;;;;;;;7.28;3.42;;;29.80;22.10;;;;;;4987228;28;36643;-77
2022/05/20 08:25:16;;;;;;;4.40;3.28;;;29.90;21.70;;;;;;4988031;28;34267;-78
2022/05/20 08:27:42;;;;;;;3.85;3.22;;;30.00;22.80;;;;;;4991057;28;34447;-77
2022/05/20 08:30:13;;;;;;;4.35;3.55;;;30.20;22.00;;;;;;4982922;28;34321;-78
2022/05/20 08:32:39;;;;;;;7.15;3.28;;;30.30;21.10;;;;;;4968848;28;35879;-77
2022/05/20 08:35:06;;;;;;;3.90;3.50;;;30.20;22.80;;;;;;4990289;28;34372;-79
2022/05/20 08:37:36;;;;;;;7.05;3.80;;;30.40;21.80;;;;;;5004467;28;34044;-77
2022/05/20 08:40:03;;;;;;;6.40;3.78;;;30.30;21.60;;;;;;5025241;28;34265;-80
2022/05/20 08:42:31;;;;;;;6.35;3.60;;;30.30;21.40;;;;;;5008972;28;35478;-79
2022/05/20 08:48:11;;;;;;;5.93;3.45;;;30.10;21.20;;;;;;5023640;28;33995;-78
2022/05/20 08:50:43;;;;;;;4.80;3.80;;;29.80;21.70;;;;;;4989933;28;34318;-76
2022/05/20 08:53:28;;;;;;;7.00;4.13;;;29.50;21.50;;;;;;5008214;28;37113;-77
2022/05/20 08:55:59;;;;;;;6.22;3.90;;;29.40;20.00;;;;;;5027981;28;34222;-77
2022/05/20 08:58:26;;;;;;;5.40;3.83;;;29.30;21.10;;;;;;4989780;28;34251;-78
2022/05/20 09:00:52;;;;;;;4.45;3.88;;;29.30;22.10;;;;;;4987245;28;34225;-78
2022/05/20 09:03:18;;;;;;;4.63;4.13;;;29.20;22.10;;;;;;5006084;28;36715;-75
2022/05/20 09:05:45;;;;;;;8.35;4.43;;;29.20;22.30;;;;;;5021472;28;34429;-75
2022/05/20 09:08:25;;;;;;;5.80;4.10;;;29.30;22.20;;;;;;4992639;28;34178;-75
2022/05/20 09:10:55;;;;;;;6.22;4.35;;;29.30;21.50;;;;;;5009023;28;34087;-77
2022/05/20 09:16:21;;;;;;;8.88;4.70;;;29.20;19.80;;;;;;5010741;28;34277;-76
2022/05/20 09:18:50;;;;;;;6.63;4.90;;;28.90;21.70;;;;;;4992336;28;34004;-75
2022/05/20 09:21:27;;;;;;;5.30;4.50;;;28.90;21.80;;;;;;4976244;28;34242;-76
2022/05/20 09:23:56;;;;;;;6.00;4.63;;;28.90;22.30;;;;;;5009166;28;34472;-75
2022/05/20 09:26:26;;;;;;;7.57;4.70;;;28.90;22.70;;;;;;4992611;28;34148;-77
2022/05/20 09:29:00;;;;;;;5.28;4.45;;;29.00;23.40;;;;;;5009535;28;34170;-77
2022/05/20 09:31:45;;;;;;;5.50;4.85;;;29.10;23.10;;;;;;4993870;28;35432;-77
2022/05/20 09:34:33;;;;;;;7.05;4.85;;;29.30;22.60;;;;;;5017557;28;34346;-76
2022/05/20 09:37:05;;;;;;;6.28;5.05;;;29.10;22.30;;;;;;5008525;28;34159;-76
2022/05/20 09:39:41;;;;;;;6.15;5.25;;;28.80;22.30;;;;;;5008963;28;34264;-77
2022/05/20 09:42:16;;;;;;;7.90;4.50;;;28.50;23.30;;;;;;4991725;28;34296;-76
2022/05/20 09:44:45;;;;;;;6.00;4.55;;;28.40;23.90;;;;;;5017544;28;35307;-75
2022/05/20 09:47:33;;;;;;;6.63;5.03;;;28.20;24.10;;;;;;5007966;28;34221;-75
2022/05/20 09:50:14;;;;;;;5.85;5.07;;;28.10;24.60;;;;;;4994282;28;34195;-75
2022/05/20 09:52:57;;;;;;;4.90;4.43;;;27.90;24.80;;;;;;5009780;28;34221;-75
2022/05/20 09:55:29;;;;;;;6.18;5.30;;;27.90;25.60;;;;;;4987861;28;35685;-75
2022/05/20 09:58:08;;;;;;;8.00;5.32;;;28.00;26.20;;;;;;4988118;28;34258;-75
2022/05/20 10:00:36;;;;;;;7.15;5.47;;;28.10;25.30;;;;;;4988235;28;34087;-75
2022/05/20 10:03:23;;;;;;;5.35;4.85;;;28.30;24.40;;;;;;4988666;28;34365;-75
2022/05/20 10:06:04;;;;;;;6.32;5.18;;;28.30;25.10;;;;;;4972074;28;35600;-75
2022/05/20 10:08:40;;;;;;;7.63;4.95;;;28.20;24.90;;;;;;5007038;28;34004;-74
2022/05/20 10:11:29;;;;;;;5.70;4.78;;;28.10;24.70;;;;;;5021739;28;34818;-75
2022/05/20 10:14:02;;;;;;;6.80;5.03;;;27.90;26.70;;;;;;4968931;28;34420;-75
2022/05/20 10:16:47;;;;;;;10.52;5.20;;;27.80;25.60;;;;;;4986973;28;35664;-75
2022/05/20 10:19:20;;;;;;;5.43;4.93;;;27.50;26.70;;;;;;4997748;28;34079;-75
2022/05/20 10:22:10;;;;;;;7.78;4.90;;;27.50;27.10;;;;;;4987955;28;34024;-75
2022/05/20 10:24:57;;;;;;;7.22;5.72;;;27.70;28.50;;;;;;4988216;28;34289;-77
2022/05/20 10:27:33;;;;;;;6.22;5.38;;;27.80;28.30;;;;;;4972174;28;36275;-75
2022/05/20 10:33:02;;;;;;;5.95;5.35;;;27.90;25.20;;;;;;5003812;28;34130;-74
2022/05/20 10:35:50;;;;;;;9.15;5.53;;;27.80;25.40;;;;;;5002484;28;34150;-75
2022/05/20 10:38:39;;;;;;;5.95;4.80;;;27.80;26.10;;;;;;5002293;28;35288;-75
2022/05/20 10:41:13;;;;;;;7.60;4.80;;;27.60;27.20;;;;;;4987313;28;34276;-75
2022/05/20 10:50:00;;;;;;;7.05;5.18;;;27.30;28.60;;;;;;4983587;28;34732;-76
2022/05/20 10:52:53;;;;;;;11.10;5.85;;;27.10;30.10;;;;;;4972131;28;34396;-79
2022/05/20 10:55:39;;;;;;;10.43;6.15;;;26.80;31.20;;;;;;5018617;28;34246;-77
2022/05/20 10:58:29;;;;;;;9.95;5.68;;;26.60;31.40;;;;;;4990871;28;34538;-77
2022/05/20 11:00:59;;;;;;;7.70;6.13;;;26.40;34.50;;;;;;4989778;28;35865;-76
2022/05/20 11:03:46;;;;;;;7.25;6.13;;;26.30;31.10;;;;;;4997419;28;34142;-76
2022/05/20 11:06:43;;;;;;;11.25;6.13;;;26.10;34.80;;;;;;4990901;28;34144;-75
2022/05/20 11:09:36;;;;;;;8.88;6.07;;;26.10;35.40;;;;;;4992353;28;34407;-78
2022/05/20 11:12:04;;;;;;;10.10;6.72;;;26.10;35.20;;;;;;4989424;28;35567;-76
2022/05/20 11:14:45;;;;;;;9.15;7.28;;;26.10;32.70;;;;;;4984521;28;34160;-76
2022/05/20 11:17:35;;;;;;;8.70;7.15;;;26.00;35.60;;;;;;4986877;28;34196;-77
2022/05/20 11:20:23;;;;;;;10.52;7.72;;;26.10;37.50;;;;;;4988643;28;34139;-78
2022/05/20 11:23:12;;;;;;;10.18;7.47;;;26.20;34.20;;;;;;4992534;28;34471;-76
2022/05/20 11:26:05;;;;;;;9.60;8.60;;;26.40;36.80;;;;;;5006801;28;34406;-76
2022/05/20 11:28:58;;;;;;;10.52;8.20;;;26.70;36.20;;;;;;4970543;28;34200;-77
2022/05/20 11:31:46;;;;;;;8.77;7.65;;;26.80;35.10;;;;;;5006013;28;34273;-77
2022/05/20 11:34:35;;;;;;;8.10;6.90;;;26.80;36.10;;;;;;4972965;28;35694;-80
2022/05/20 11:37:24;;;;;;;10.60;6.72;;;26.70;34.40;;;;;;5003672;28;34031;-76
2022/05/20 11:40:04;;;;;;;10.38;7.10;;;26.50;34.60;;;;;;5007487;28;34109;-76
2022/05/20 11:43:05;;;;;;;9.55;7.70;;;26.40;35.50;;;;;;4991171;28;34352;-76
2022/05/20 11:45:48;;;;;;;9.80;7.28;;;26.30;37.60;;;;;;4989337;28;35615;-77
2022/05/20 11:48:33;;;;;;;11.27;7.30;;;26.20;37.30;;;;;;5000174;28;34246;-76
2022/05/20 11:51:34;;;;;;;10.95;7.35;;;26.20;36.80;;;;;;4987031;28;34088;-77
2022/05/20 11:54:16;;;;;;;8.05;6.38;;;26.30;39.20;;;;;;4993949;28;34154;-78
2022/05/20 11:56:51;;;;;;;9.70;6.20;;;26.40;35.40;;;;;;4996680;28;36098;-77
2022/05/20 11:59:32;;;;;;;7.88;5.93;;;26.40;36.20;;;;;;5023336;28;34188;-77
2022/05/20 12:02:01;;;;;;;9.93;5.93;;;26.40;35.90;;;;;;5043755;28;34065;-77
2022/05/20 12:04:30;;;;;;;7.28;6.00;;;26.40;34.40;;;;;;5026296;28;35113;-76
2022/05/20 12:07:01;;;;;;;7.10;5.38;;;26.20;34.50;;;;;;5025859;28;35740;-77
2022/05/20 12:09:34;;;;;;;10.13;6.35;;;26.30;34.80;;;;;;5019873;28;34262;-76
2022/05/20 12:12:20;;;;;;;10.55;6.15;;;26.30;36.20;;;;;;5008397;28;34430;-76
2022/05/20 12:15:17;;;;;;;8.93;5.97;;;26.50;37.60;;;;;;5008359;28;34131;-76
2022/05/20 12:17:47;;;;;;;7.13;5.53;;;26.70;37.50;;;;;;5007733;28;36060;-77
2022/05/20 12:26:22;;;;;;;7.97;5.55;;;27.40;33.10;;;;;;4997519;28;34446;-79
2022/05/20 12:28:49;;;;;;;7.40;5.30;;;27.80;35.30;;;;;;4976328;28;35663;-77
2022/05/20 12:31:37;;;;;;;9.85;5.63;;;28.00;31.90;;;;;;4983106;28;34092;-79
2022/05/20 12:34:10;;;;;;;9.13;5.43;;;28.20;30.90;;;;;;4983631;28;34387;-80
2022/05/20 12:36:39;;;;;;;9.05;5.40;;;28.40;31.80;;;;;;5003507;28;34359;-79
2022/05/20 12:39:18;;;;;;;6.55;5.30;;;28.60;30.40;;;;;;5016871;28;35892;-81
2022/05/20 12:42:00;;;;;;;7.63;5.50;;;28.50;28.00;;;;;;4997116;28;34040;-79
2022/05/20 12:44:31;;;;;;;5.95;5.07;;;28.50;28.50;;;;;;4980385;28;34372;-80
2022/05/20 12:47:21;;;;;;;5.15;4.65;;;28.70;31.00;;;;;;5005077;28;34253;-79
2022/05/20 12:50:10;;;;;;;10.45;4.68;;;29.00;31.60;;;;;;4967908;28;35934;-79
2022/05/20 12:52:50;;;;;;;5.90;4.63;;;29.30;27.50;;;;;;4993751;28;34257;-77
2022/05/20 12:55:23;;;;;;;8.10;4.93;;;29.40;26.90;;;;;;4984526;28;34337;-79
2022/05/20 12:57:54;;;;;;;7.50;4.65;;;29.40;29.10;;;;;;4995195;28;34252;-77
2022/05/20 13:00:30;;;;;;;6.32;4.63;;;29.60;28.20;;;;;;4992819;28;36855;-78
2022/05/20 13:03:02;;;;;;;6.40;4.50;;;29.70;28.10;;;;;;4978499;28;34077;-77
2022/05/20 13:05:35;;;;;;;6.45;4.85;;;29.80;26.20;;;;;;5009974;28;34031;-80
2022/05/20 13:08:07;;;;;;;6.38;4.72;;;29.90;28.00;;;;;;4997225;28;34064;-78
2022/05/20 13:10:37;;;;;;;6.18;4.38;;;29.90;27.10;;;;;;5011021;28;36247;-80
2022/05/20 13:13:09;;;;;;;8.65;4.45;;;30.00;27.20;;;;;;5012050;28;34107;-79
2022/05/20 13:15:54;;;;;;;6.28;4.53;;;30.00;27.50;;;;;;4977660;28;34347;-79
2022/05/20 13:18:24;;;;;;;5.75;4.57;;;30.00;26.00;;;;;;4990852;28;33966;-80
2022/05/20 13:20:55;;;;;;;6.00;4.57;;;30.00;27.30;;;;;;4972771;28;35709;-81
2022/05/20 13:23:25;;;;;;;6.43;4.50;;;30.00;27.90;;;;;;4997656;28;34103;-77
2022/05/20 13:25:51;;;;;;;4.78;3.85;;;30.10;27.50;;;;;;4978019;28;34240;-79
2022/05/20 13:28:30;;;;;;;7.47;4.10;;;30.00;27.30;;;;;;4975606;28;34275;-77
2022/05/20 13:31:07;;;;;;;5.45;4.10;;;30.10;25.30;;;;;;4980176;28;34597;-80
2022/05/20 13:33:35;;;;;;;5.53;3.88;;;30.00;24.10;;;;;;5004380;28;34496;-77
2022/05/20 13:38:53;;;;;;;7.00;4.00;;;30.10;25.80;;;;;;5011503;28;34454;-76
2022/05/20 13:41:23;;;;;;;4.82;3.80;;;30.20;26.20;;;;;;5008296;28;36085;-78
2022/05/20 13:43:53;;;;;;;7.80;3.83;;;30.40;25.50;;;;;;5000472;28;34330;-77
2022/05/20 13:51:49;;;;;;;7.50;3.30;;;30.50;23.90;;;;;;5015318;28;34635;-77
2022/05/20 13:54:21;;;;;;;5.35;2.90;;;30.20;22.80;;;;;;5005247;28;34276;-76
2022/05/20 13:56:50;;;;;;;5.53;3.05;;;29.90;18.00;;;;;;5010142;28;34364;-76
2022/05/20 13:59:34;;;;;;;6.75;3.33;;;29.40;20.10;;;;;;4976817;28;34487;-81
2022/05/20 14:02:11;;;;;;;4.10;2.95;;;29.00;18.30;;;;;;5000552;28;34900;-78
2022/05/20 14:04:50;;;;;;;4.05;2.80;;;28.70;19.90;;;;;;4971584;28;34328;-77